sensor_id;sensor_type;location;lat;lon;timestamp;P1;durP1;ratioP1;P2;durP2;ratioP2
26277;SDS011;14000;52.056;8.510;2023-06-14T00:00:19;12.37;;;2.80;;
26277;SDS011;14000;52.056;8.510;2023-06-14T00:02:45;8.20;;;2.70;;
26277;SDS011;14000;52.056;8.510;2023-06-14T00:05:11;8.10;;;2.70;;
26277;SDS011;14000;52.056;8.510;2023-06-14T00:07:38;10.50;;;2.90;;
26277;SDS011;14000;52.056;8.510;2023-06-14T00:10:08;11.43;;;2.97;;
26277;SDS011;14000;52.056;8.510;2023-06-14T00:12:37;9.83;;;3.23;;
26277;SDS011;14000;52.056;8.510;2023-06-14T00:15:04;8.27;;;2.97;;
26277;SDS011;14000;52.056;8.510;2023-06-14T00:17:30;9.03;;;2.80;;
26277;SDS011;14000;52.056;8.510;2023-06-14T00:19:56;12.13;;;3.03;;
26277;SDS011;14000;52.056;8.510;2023-06-14T00:22:22;9.57;;;3.10;;
26277;SDS011;14000;52.056;8.510;2023-06-14T00:24:53;9.47;;;3.13;;
26277;SDS011;14000;52.056;8.510;2023-06-14T00:27:19;7.33;;;2.67;;
26277;SDS011;14000;52.056;8.510;2023-06-14T00:29:45;9.50;;;2.80;;
26277;SDS011;14000;52.056;8.510;2023-06-14T00:32:11;12.33;;;3.20;;
26277;SDS011;14000;52.056;8.510;2023-06-14T00:34:36;9.90;;;3.03;;
26277;SDS011;14000;52.056;8.510;2023-06-14T00:37:02;10.13;;;3.00;;
26277;SDS011;14000;52.056;8.510;2023-06-14T00:39:27;11.17;;;3.30;;
26277;SDS011;14000;52.056;8.510;2023-06-14T00:41:53;10.00;;;3.10;;
26277;SDS011;14000;52.056;8.510;2023-06-14T00:44:18;9.37;;;3.03;;
26277;SDS011;14000;52.056;8.510;2023-06-14T00:46:45;7.87;;;3.00;;
26277;SDS011;14000;52.056;8.510;2023-06-14T00:49:11;8.80;;;3.27;;
26277;SDS011;14000;52.056;8.510;2023-06-14T00:51:40;10.43;;;3.20;;
26277;SDS011;14000;52.056;8.510;2023-06-14T00:54:06;9.33;;;3.10;;
26277;SDS011;14000;52.056;8.510;2023-06-14T00:56:31;7.77;;;2.87;;
26277;SDS011;14000;52.056;8.510;2023-06-14T00:58:57;8.90;;;3.03;;
26277;SDS011;14000;52.056;8.510;2023-06-14T01:01:23;11.43;;;3.30;;
26277;SDS011;14000;52.056;8.510;2023-06-14T01:03:49;10.30;;;3.20;;
26277;SDS011;14000;52.056;8.510;2023-06-14T01:08:54;9.53;;;3.20;;
26277;SDS011;14000;52.056;8.510;2023-06-14T01:11:35;10.10;;;3.03;;
26277;SDS011;14000;52.056;8.510;2023-06-14T01:14:08;9.23;;;3.10;;
26277;SDS011;14000;52.056;8.510;2023-06-14T01:16:37;10.40;;;3.40;;
26277;SDS011;14000;52.056;8.510;2023-06-14T01:19:05;9.67;;;3.40;;
26277;SDS011;14000;52.056;8.510;2023-06-14T01:21:33;13.57;;;3.67;;
26277;SDS011;14000;52.056;8.510;2023-06-14T01:24:06;9.17;;;3.37;;
26277;SDS011;14000;52.056;8.510;2023-06-14T01:26:35;10.43;;;3.90;;
26277;SDS011;14000;52.056;8.510;2023-06-14T01:29:08;8.50;;;3.10;;
26277;SDS011;14000;52.056;8.510;2023-06-14T01:31:36;9.57;;;3.60;;
26277;SDS011;14000;52.056;8.510;2023-06-14T01:34:06;10.53;;;3.80;;
26277;SDS011;14000;52.056;8.510;2023-06-14T01:36:33;11.03;;;3.83;;
26277;SDS011;14000;52.056;8.510;2023-06-14T01:39:00;10.83;;;4.07;;
26277;SDS011;14000;52.056;8.510;2023-06-14T01:41:27;10.00;;;3.80;;
26277;SDS011;14000;52.056;8.510;2023-06-14T01:43:54;12.90;;;4.10;;
26277;SDS011;14000;52.056;8.510;2023-06-14T01:46:21;10.63;;;3.80;;
26277;SDS011;14000;52.056;8.510;2023-06-14T01:48:48;9.60;;;3.87;;
26277;SDS011;14000;52.056;8.510;2023-06-14T01:51:14;10.77;;;4.33;;
26277;SDS011;14000;52.056;8.510;2023-06-14T01:53:40;10.80;;;4.00;;
26277;SDS011;14000;52.056;8.510;2023-06-14T01:56:05;9.70;;;3.90;;
26277;SDS011;14000;52.056;8.510;2023-06-14T01:58:31;10.23;;;3.77;;
26277;SDS011;14000;52.056;8.510;2023-06-14T02:00:58;11.63;;;3.80;;
26277;SDS011;14000;52.056;8.510;2023-06-14T02:03:25;11.00;;;3.87;;
26277;SDS011;14000;52.056;8.510;2023-06-14T02:05:51;10.00;;;3.80;;
26277;SDS011;14000;52.056;8.510;2023-06-14T02:08:17;11.97;;;4.00;;
26277;SDS011;14000;52.056;8.510;2023-06-14T02:10:42;9.07;;;3.90;;
26277;SDS011;14000;52.056;8.510;2023-06-14T02:13:08;11.67;;;4.00;;
26277;SDS011;14000;52.056;8.510;2023-06-14T02:15:34;9.57;;;3.50;;
26277;SDS011;14000;52.056;8.510;2023-06-14T02:18:03;11.67;;;3.93;;
26277;SDS011;14000;52.056;8.510;2023-06-14T02:20:29;11.27;;;4.10;;
26277;SDS011;14000;52.056;8.510;2023-06-14T02:22:55;10.93;;;3.87;;
26277;SDS011;14000;52.056;8.510;2023-06-14T02:25:20;9.40;;;4.20;;
26277;SDS011;14000;52.056;8.510;2023-06-14T02:27:46;10.73;;;3.90;;
26277;SDS011;14000;52.056;8.510;2023-06-14T02:30:12;10.07;;;3.80;;
26277;SDS011;14000;52.056;8.510;2023-06-14T02:32:37;9.77;;;3.33;;
26277;SDS011;14000;52.056;8.510;2023-06-14T02:35:03;9.90;;;3.90;;
26277;SDS011;14000;52.056;8.510;2023-06-14T02:37:29;10.43;;;3.60;;
26277;SDS011;14000;52.056;8.510;2023-06-14T02:39:55;11.60;;;3.83;;
26277;SDS011;14000;52.056;8.510;2023-06-14T02:42:21;11.43;;;3.90;;
26277;SDS011;14000;52.056;8.510;2023-06-14T02:44:47;13.23;;;3.93;;
26277;SDS011;14000;52.056;8.510;2023-06-14T02:47:16;11.03;;;3.73;;
26277;SDS011;14000;52.056;8.510;2023-06-14T02:49:44;9.77;;;4.03;;
26277;SDS011;14000;52.056;8.510;2023-06-14T02:52:13;10.07;;;3.90;;
26277;SDS011;14000;52.056;8.510;2023-06-14T02:54:39;11.00;;;3.90;;
26277;SDS011;14000;52.056;8.510;2023-06-14T02:57:05;11.17;;;4.10;;
26277;SDS011;14000;52.056;8.510;2023-06-14T02:59:32;9.23;;;3.90;;
26277;SDS011;14000;52.056;8.510;2023-06-14T03:01:58;10.13;;;3.70;;
26277;SDS011;14000;52.056;8.510;2023-06-14T03:04:24;9.90;;;3.97;;
26277;SDS011;14000;52.056;8.510;2023-06-14T03:06:51;11.47;;;3.90;;
26277;SDS011;14000;52.056;8.510;2023-06-14T03:09:18;11.37;;;4.00;;
26277;SDS011;14000;52.056;8.510;2023-06-14T03:11:44;9.80;;;4.07;;
26277;SDS011;14000;52.056;8.510;2023-06-14T03:14:10;9.40;;;4.00;;
26277;SDS011;14000;52.056;8.510;2023-06-14T03:16:36;10.70;;;4.27;;
26277;SDS011;14000;52.056;8.510;2023-06-14T03:19:02;9.00;;;3.80;;
26277;SDS011;14000;52.056;8.510;2023-06-14T03:21:28;11.00;;;4.07;;
26277;SDS011;14000;52.056;8.510;2023-06-14T03:23:53;11.83;;;4.17;;
26277;SDS011;14000;52.056;8.510;2023-06-14T03:26:19;10.80;;;4.03;;
26277;SDS011;14000;52.056;8.510;2023-06-14T03:28:45;8.87;;;3.60;;
26277;SDS011;14000;52.056;8.510;2023-06-14T03:31:11;9.80;;;3.83;;
26277;SDS011;14000;52.056;8.510;2023-06-14T03:33:37;10.77;;;3.97;;
26277;SDS011;14000;52.056;8.510;2023-06-14T03:36:03;10.07;;;4.17;;
26277;SDS011;14000;52.056;8.510;2023-06-14T03:38:30;11.53;;;4.10;;
26277;SDS011;14000;52.056;8.510;2023-06-14T03:40:56;11.10;;;4.00;;
26277;SDS011;14000;52.056;8.510;2023-06-14T03:43:21;11.63;;;4.60;;
26277;SDS011;14000;52.056;8.510;2023-06-14T03:45:47;10.53;;;3.57;;
26277;SDS011;14000;52.056;8.510;2023-06-14T03:48:12;9.23;;;3.87;;
26277;SDS011;14000;52.056;8.510;2023-06-14T03:50:38;10.23;;;4.00;;
26277;SDS011;14000;52.056;8.510;2023-06-14T03:53:04;11.47;;;4.13;;
26277;SDS011;14000;52.056;8.510;2023-06-14T03:55:30;8.30;;;3.57;;
26277;SDS011;14000;52.056;8.510;2023-06-14T03:57:58;12.30;;;4.10;;
26277;SDS011;14000;52.056;8.510;2023-06-14T04:00:24;10.70;;;4.07;;
26277;SDS011;14000;52.056;8.510;2023-06-14T04:02:50;13.20;;;4.40;;
26277;SDS011;14000;52.056;8.510;2023-06-14T04:05:16;9.17;;;3.90;;
26277;SDS011;14000;52.056;8.510;2023-06-14T04:07:44;11.00;;;4.63;;
26277;SDS011;14000;52.056;8.510;2023-06-14T04:10:10;12.27;;;4.33;;
26277;SDS011;14000;52.056;8.510;2023-06-14T04:12:38;10.37;;;4.10;;
26277;SDS011;14000;52.056;8.510;2023-06-14T04:15:03;11.20;;;4.50;;
26277;SDS011;14000;52.056;8.510;2023-06-14T04:17:31;10.10;;;4.10;;
26277;SDS011;14000;52.056;8.510;2023-06-14T04:19:58;11.57;;;4.47;;
26277;SDS011;14000;52.056;8.510;2023-06-14T04:22:24;12.33;;;4.00;;
26277;SDS011;14000;52.056;8.510;2023-06-14T04:24:53;11.23;;;4.37;;
26277;SDS011;14000;52.056;8.510;2023-06-14T04:27:21;11.77;;;3.90;;
26277;SDS011;14000;52.056;8.510;2023-06-14T04:29:54;12.27;;;4.23;;
26277;SDS011;14000;52.056;8.510;2023-06-14T04:32:24;13.20;;;4.23;;
26277;SDS011;14000;52.056;8.510;2023-06-14T04:34:52;13.67;;;4.10;;
26277;SDS011;14000;52.056;8.510;2023-06-14T04:37:22;12.53;;;3.93;;
26277;SDS011;14000;52.056;8.510;2023-06-14T04:39:48;10.03;;;4.07;;
26277;SDS011;14000;52.056;8.510;2023-06-14T04:42:15;10.80;;;4.10;;
26277;SDS011;14000;52.056;8.510;2023-06-14T04:44:41;9.80;;;3.70;;
26277;SDS011;14000;52.056;8.510;2023-06-14T04:47:08;10.03;;;4.07;;
26277;SDS011;14000;52.056;8.510;2023-06-14T04:49:34;9.77;;;4.20;;
26277;SDS011;14000;52.056;8.510;2023-06-14T04:52:00;11.67;;;4.10;;
26277;SDS011;14000;52.056;8.510;2023-06-14T04:54:26;11.23;;;3.93;;
26277;SDS011;14000;52.056;8.510;2023-06-14T04:56:53;10.63;;;3.90;;
26277;SDS011;14000;52.056;8.510;2023-06-14T04:59:20;9.87;;;4.10;;
26277;SDS011;14000;52.056;8.510;2023-06-14T05:01:48;9.27;;;3.60;;
26277;SDS011;14000;52.056;8.510;2023-06-14T05:04:17;9.57;;;3.67;;
26277;SDS011;14000;52.056;8.510;2023-06-14T05:06:44;8.50;;;3.40;;
26277;SDS011;14000;52.056;8.510;2023-06-14T05:09:13;10.87;;;3.80;;
26277;SDS011;14000;52.056;8.510;2023-06-14T05:11:40;9.13;;;3.33;;
26277;SDS011;14000;52.056;8.510;2023-06-14T05:14:10;11.03;;;3.60;;
26277;SDS011;14000;52.056;8.510;2023-06-14T05:16:36;9.07;;;3.60;;
26277;SDS011;14000;52.056;8.510;2023-06-14T05:19:02;9.23;;;3.10;;
26277;SDS011;14000;52.056;8.510;2023-06-14T05:21:29;12.67;;;2.80;;
26277;SDS011;14000;52.056;8.510;2023-06-14T05:23:56;8.10;;;2.90;;
26277;SDS011;14000;52.056;8.510;2023-06-14T05:26:21;11.13;;;3.17;;
26277;SDS011;14000;52.056;8.510;2023-06-14T05:28:50;7.07;;;2.57;;
26277;SDS011;14000;52.056;8.510;2023-06-14T05:31:17;8.27;;;2.70;;
26277;SDS011;14000;52.056;8.510;2023-06-14T05:33:43;8.70;;;2.90;;
26277;SDS011;14000;52.056;8.510;2023-06-14T05:36:08;9.43;;;2.67;;
26277;SDS011;14000;52.056;8.510;2023-06-14T05:38:34;8.83;;;2.40;;
26277;SDS011;14000;52.056;8.510;2023-06-14T05:40:59;8.77;;;2.70;;
26277;SDS011;14000;52.056;8.510;2023-06-14T05:43:25;10.30;;;2.40;;
26277;SDS011;14000;52.056;8.510;2023-06-14T05:45:50;8.50;;;2.40;;
26277;SDS011;14000;52.056;8.510;2023-06-14T05:48:16;9.73;;;2.50;;
26277;SDS011;14000;52.056;8.510;2023-06-14T05:50:41;7.70;;;2.30;;
26277;SDS011;14000;52.056;8.510;2023-06-14T05:53:07;8.70;;;2.30;;
26277;SDS011;14000;52.056;8.510;2023-06-14T05:55:33;9.23;;;2.23;;
26277;SDS011;14000;52.056;8.510;2023-06-14T05:57:58;8.73;;;2.50;;
26277;SDS011;14000;52.056;8.510;2023-06-14T06:00:24;6.97;;;2.20;;
26277;SDS011;14000;52.056;8.510;2023-06-14T06:02:49;8.27;;;2.40;;
26277;SDS011;14000;52.056;8.510;2023-06-14T06:05:15;10.37;;;2.07;;
26277;SDS011;14000;52.056;8.510;2023-06-14T06:07:41;8.20;;;2.10;;
26277;SDS011;14000;52.056;8.510;2023-06-14T06:10:09;7.90;;;2.50;;
26277;SDS011;14000;52.056;8.510;2023-06-14T06:12:34;8.80;;;2.07;;
26277;SDS011;14000;52.056;8.510;2023-06-14T06:15:00;8.13;;;2.30;;
26277;SDS011;14000;52.056;8.510;2023-06-14T06:17:26;9.20;;;2.30;;
26277;SDS011;14000;52.056;8.510;2023-06-14T06:19:52;8.90;;;2.10;;
26277;SDS011;14000;52.056;8.510;2023-06-14T06:22:18;7.80;;;2.17;;
26277;SDS011;14000;52.056;8.510;2023-06-14T06:24:44;7.37;;;1.83;;
26277;SDS011;14000;52.056;8.510;2023-06-14T06:27:10;8.20;;;2.00;;
26277;SDS011;14000;52.056;8.510;2023-06-14T06:29:37;7.83;;;2.10;;
26277;SDS011;14000;52.056;8.510;2023-06-14T06:32:03;9.90;;;2.03;;
26277;SDS011;14000;52.056;8.510;2023-06-14T06:34:29;8.63;;;2.07;;
26277;SDS011;14000;52.056;8.510;2023-06-14T06:36:54;7.00;;;2.10;;
26277;SDS011;14000;52.056;8.510;2023-06-14T06:39:20;8.17;;;2.10;;
26277;SDS011;14000;52.056;8.510;2023-06-14T06:41:45;7.43;;;1.90;;
26277;SDS011;14000;52.056;8.510;2023-06-14T06:44:11;6.80;;;2.00;;
26277;SDS011;14000;52.056;8.510;2023-06-14T06:46:37;7.63;;;1.80;;
26277;SDS011;14000;52.056;8.510;2023-06-14T06:49:06;8.73;;;2.27;;
26277;SDS011;14000;52.056;8.510;2023-06-14T06:51:31;8.10;;;1.80;;
26277;SDS011;14000;52.056;8.510;2023-06-14T06:53:57;8.10;;;1.90;;
26277;SDS011;14000;52.056;8.510;2023-06-14T06:56:23;6.73;;;1.50;;
26277;SDS011;14000;52.056;8.510;2023-06-14T06:58:49;7.67;;;1.60;;
26277;SDS011;14000;52.056;8.510;2023-06-14T07:01:15;7.63;;;2.00;;
26277;SDS011;14000;52.056;8.510;2023-06-14T07:03:41;5.97;;;1.60;;
26277;SDS011;14000;52.056;8.510;2023-06-14T07:06:07;6.40;;;1.80;;
26277;SDS011;14000;52.056;8.510;2023-06-14T07:08:33;7.20;;;1.67;;
26277;SDS011;14000;52.056;8.510;2023-06-14T07:10:59;7.67;;;1.80;;
26277;SDS011;14000;52.056;8.510;2023-06-14T07:13:25;7.40;;;1.90;;
26277;SDS011;14000;52.056;8.510;2023-06-14T07:15:50;8.67;;;1.70;;
26277;SDS011;14000;52.056;8.510;2023-06-14T07:18:19;6.67;;;1.60;;
26277;SDS011;14000;52.056;8.510;2023-06-14T07:20:45;5.87;;;1.73;;
26277;SDS011;14000;52.056;8.510;2023-06-14T07:23:12;10.00;;;1.70;;
26277;SDS011;14000;52.056;8.510;2023-06-14T07:25:37;6.20;;;1.80;;
26277;SDS011;14000;52.056;8.510;2023-06-14T07:28:03;7.80;;;1.77;;
26277;SDS011;14000;52.056;8.510;2023-06-14T07:30:29;8.37;;;1.80;;
26277;SDS011;14000;52.056;8.510;2023-06-14T07:32:55;6.43;;;1.50;;
26277;SDS011;14000;52.056;8.510;2023-06-14T07:35:21;7.60;;;1.80;;
26277;SDS011;14000;52.056;8.510;2023-06-14T07:37:46;7.53;;;2.10;;
26277;SDS011;14000;52.056;8.510;2023-06-14T07:40:12;7.87;;;1.90;;
26277;SDS011;14000;52.056;8.510;2023-06-14T07:42:38;7.17;;;1.70;;
26277;SDS011;14000;52.056;8.510;2023-06-14T07:45:05;7.23;;;1.80;;
26277;SDS011;14000;52.056;8.510;2023-06-14T07:47:31;7.93;;;1.90;;
26277;SDS011;14000;52.056;8.510;2023-06-14T07:49:57;7.73;;;2.00;;
26277;SDS011;14000;52.056;8.510;2023-06-14T07:52:23;8.97;;;1.87;;
26277;SDS011;14000;52.056;8.510;2023-06-14T07:54:48;8.27;;;1.90;;
26277;SDS011;14000;52.056;8.510;2023-06-14T07:57:14;8.00;;;1.80;;
26277;SDS011;14000;52.056;8.510;2023-06-14T07:59:39;6.80;;;1.90;;
26277;SDS011;14000;52.056;8.510;2023-06-14T08:02:05;6.37;;;1.70;;
26277;SDS011;14000;52.056;8.510;2023-06-14T08:04:31;6.30;;;1.80;;
26277;SDS011;14000;52.056;8.510;2023-06-14T08:06:57;9.63;;;2.00;;
26277;SDS011;14000;52.056;8.510;2023-06-14T08:09:23;6.03;;;1.47;;
26277;SDS011;14000;52.056;8.510;2023-06-14T08:11:50;7.30;;;1.60;;
26277;SDS011;14000;52.056;8.510;2023-06-14T08:14:16;10.27;;;1.90;;
26277;SDS011;14000;52.056;8.510;2023-06-14T08:16:41;8.50;;;1.90;;
26277;SDS011;14000;52.056;8.510;2023-06-14T08:19:07;7.57;;;1.70;;
26277;SDS011;14000;52.056;8.510;2023-06-14T08:21:33;8.93;;;1.80;;
26277;SDS011;14000;52.056;8.510;2023-06-14T08:24:01;7.23;;;1.77;;
26277;SDS011;14000;52.056;8.510;2023-06-14T08:26:27;9.23;;;1.93;;
26277;SDS011;14000;52.056;8.510;2023-06-14T08:28:54;7.00;;;1.90;;
26277;SDS011;14000;52.056;8.510;2023-06-14T08:31:20;8.13;;;1.80;;
26277;SDS011;14000;52.056;8.510;2023-06-14T08:33:46;6.93;;;1.93;;
26277;SDS011;14000;52.056;8.510;2023-06-14T08:36:11;7.90;;;1.77;;
26277;SDS011;14000;52.056;8.510;2023-06-14T08:38:38;8.10;;;2.30;;
26277;SDS011;14000;52.056;8.510;2023-06-14T08:41:06;9.33;;;1.80;;
26277;SDS011;14000;52.056;8.510;2023-06-14T08:43:36;7.13;;;1.97;;
26277;SDS011;14000;52.056;8.510;2023-06-14T08:46:02;7.53;;;1.77;;
26277;SDS011;14000;52.056;8.510;2023-06-14T08:48:29;6.83;;;1.73;;
26277;SDS011;14000;52.056;8.510;2023-06-14T08:51:01;7.10;;;2.07;;
26277;SDS011;14000;52.056;8.510;2023-06-14T08:53:30;7.10;;;1.70;;
26277;SDS011;14000;52.056;8.510;2023-06-14T08:55:57;8.10;;;2.07;;
26277;SDS011;14000;52.056;8.510;2023-06-14T08:58:26;10.03;;;2.07;;
26277;SDS011;14000;52.056;8.510;2023-06-14T09:00:54;7.20;;;1.87;;
26277;SDS011;14000;52.056;8.510;2023-06-14T09:03:21;6.43;;;1.80;;
26277;SDS011;14000;52.056;8.510;2023-06-14T09:05:48;8.77;;;1.80;;
26277;SDS011;14000;52.056;8.510;2023-06-14T09:08:14;7.67;;;1.93;;
26277;SDS011;14000;52.056;8.510;2023-06-14T09:10:41;8.63;;;2.00;;
26277;SDS011;14000;52.056;8.510;2023-06-14T09:13:06;7.43;;;1.63;;
26277;SDS011;14000;52.056;8.510;2023-06-14T09:15:32;7.97;;;2.20;;
26277;SDS011;14000;52.056;8.510;2023-06-14T09:18:00;8.37;;;1.67;;
26277;SDS011;14000;52.056;8.510;2023-06-14T09:20:28;8.77;;;1.90;;
26277;SDS011;14000;52.056;8.510;2023-06-14T09:22:55;9.67;;;2.00;;
26277;SDS011;14000;52.056;8.510;2023-06-14T09:25:21;8.07;;;1.80;;
26277;SDS011;14000;52.056;8.510;2023-06-14T09:27:47;8.57;;;1.97;;
26277;SDS011;14000;52.056;8.510;2023-06-14T09:30:13;8.00;;;1.63;;
26277;SDS011;14000;52.056;8.510;2023-06-14T09:32:39;8.43;;;1.73;;
26277;SDS011;14000;52.056;8.510;2023-06-14T09:35:08;7.20;;;1.90;;
26277;SDS011;14000;52.056;8.510;2023-06-14T09:37:34;6.67;;;1.80;;
26277;SDS011;14000;52.056;8.510;2023-06-14T09:40:02;7.50;;;1.70;;
26277;SDS011;14000;52.056;8.510;2023-06-14T09:42:28;6.20;;;1.80;;
26277;SDS011;14000;52.056;8.510;2023-06-14T09:44:55;8.00;;;1.90;;
26277;SDS011;14000;52.056;8.510;2023-06-14T09:47:22;7.23;;;1.80;;
26277;SDS011;14000;52.056;8.510;2023-06-14T09:49:48;7.17;;;2.10;;
26277;SDS011;14000;52.056;8.510;2023-06-14T09:52:18;6.70;;;2.03;;
26277;SDS011;14000;52.056;8.510;2023-06-14T09:54:46;9.33;;;2.50;;
26277;SDS011;14000;52.056;8.510;2023-06-14T09:57:21;7.90;;;2.00;;
26277;SDS011;14000;52.056;8.510;2023-06-14T09:59:48;6.20;;;1.63;;
26277;SDS011;14000;52.056;8.510;2023-06-14T10:02:21;7.40;;;1.80;;
26277;SDS011;14000;52.056;8.510;2023-06-14T10:05:07;5.83;;;1.63;;
26277;SDS011;14000;52.056;8.510;2023-06-14T10:10:50;5.23;;;1.50;;
26277;SDS011;14000;52.056;8.510;2023-06-14T10:13:16;8.93;;;1.90;;
26277;SDS011;14000;52.056;8.510;2023-06-14T10:15:52;6.40;;;2.00;;
26277;SDS011;14000;52.056;8.510;2023-06-14T10:18:26;9.07;;;1.87;;
26277;SDS011;14000;52.056;8.510;2023-06-14T10:21:03;10.60;;;1.83;;
26277;SDS011;14000;52.056;8.510;2023-06-14T10:23:35;7.33;;;2.10;;
26277;SDS011;14000;52.056;8.510;2023-06-14T10:26:05;5.33;;;1.77;;
26277;SDS011;14000;52.056;8.510;2023-06-14T10:28:31;6.40;;;1.93;;
26277;SDS011;14000;52.056;8.510;2023-06-14T10:31:04;5.27;;;1.60;;
26277;SDS011;14000;52.056;8.510;2023-06-14T10:33:50;5.60;;;1.60;;
26277;SDS011;14000;52.056;8.510;2023-06-14T10:38:56;7.73;;;1.67;;
26277;SDS011;14000;52.056;8.510;2023-06-14T10:41:22;6.60;;;1.80;;
26277;SDS011;14000;52.056;8.510;2023-06-14T10:43:49;8.97;;;2.20;;
26277;SDS011;14000;52.056;8.510;2023-06-14T10:46:15;9.07;;;2.20;;
26277;SDS011;14000;52.056;8.510;2023-06-14T10:48:43;7.33;;;2.00;;
26277;SDS011;14000;52.056;8.510;2023-06-14T10:51:19;6.57;;;2.03;;
26277;SDS011;14000;52.056;8.510;2023-06-14T10:53:49;6.67;;;1.90;;
26277;SDS011;14000;52.056;8.510;2023-06-14T10:56:28;9.33;;;2.20;;
26277;SDS011;14000;52.056;8.510;2023-06-14T10:58:56;8.33;;;2.00;;
26277;SDS011;14000;52.056;8.510;2023-06-14T11:01:31;7.40;;;2.20;;
26277;SDS011;14000;52.056;8.510;2023-06-14T11:04:08;7.70;;;2.17;;
26277;SDS011;14000;52.056;8.510;2023-06-14T11:09:24;6.27;;;1.80;;
26277;SDS011;14000;52.056;8.510;2023-06-14T11:12:08;7.67;;;2.00;;
26277;SDS011;14000;52.056;8.510;2023-06-14T11:14:36;5.97;;;1.97;;
26277;SDS011;14000;52.056;8.510;2023-06-14T11:17:03;6.27;;;1.80;;
26277;SDS011;14000;52.056;8.510;2023-06-14T11:19:29;5.47;;;1.57;;
26277;SDS011;14000;52.056;8.510;2023-06-14T11:21:55;6.03;;;1.80;;
26277;SDS011;14000;52.056;8.510;2023-06-14T11:24:20;7.83;;;1.70;;
26277;SDS011;14000;52.056;8.510;2023-06-14T11:26:47;5.57;;;1.63;;
26277;SDS011;14000;52.056;8.510;2023-06-14T11:29:14;8.50;;;1.70;;
26277;SDS011;14000;52.056;8.510;2023-06-14T11:31:44;6.10;;;1.40;;
26277;SDS011;14000;52.056;8.510;2023-06-14T11:34:12;9.93;;;1.60;;
26277;SDS011;14000;52.056;8.510;2023-06-14T11:36:38;6.80;;;1.53;;
26277;SDS011;14000;52.056;8.510;2023-06-14T11:39:04;5.33;;;1.43;;
26277;SDS011;14000;52.056;8.510;2023-06-14T11:41:35;6.68;;;1.83;;
26277;SDS011;14000;52.056;8.510;2023-06-14T11:44:02;8.02;;;1.73;;
26277;SDS011;14000;52.056;8.510;2023-06-14T11:46:28;7.13;;;1.60;;
26277;SDS011;14000;52.056;8.510;2023-06-14T11:48:54;5.93;;;1.60;;
26277;SDS011;14000;52.056;8.510;2023-06-14T11:51:20;5.50;;;1.73;;
26277;SDS011;14000;52.056;8.510;2023-06-14T11:53:46;8.77;;;1.70;;
26277;SDS011;14000;52.056;8.510;2023-06-14T11:56:12;6.27;;;1.43;;
26277;SDS011;14000;52.056;8.510;2023-06-14T11:58:38;6.77;;;1.80;;
26277;SDS011;14000;52.056;8.510;2023-06-14T12:01:03;11.90;;;2.00;;
26277;SDS011;14000;52.056;8.510;2023-06-14T12:03:29;6.23;;;1.90;;
26277;SDS011;14000;52.056;8.510;2023-06-14T12:06:05;8.07;;;2.07;;
26277;SDS011;14000;52.056;8.510;2023-06-14T12:08:38;7.43;;;2.20;;
26277;SDS011;14000;52.056;8.510;2023-06-14T12:11:14;8.73;;;1.80;;
26277;SDS011;14000;52.056;8.510;2023-06-14T12:13:40;6.50;;;1.80;;
26277;SDS011;14000;52.056;8.510;2023-06-14T12:16:10;5.63;;;1.50;;
26277;SDS011;14000;52.056;8.510;2023-06-14T12:18:37;7.80;;;1.90;;
26277;SDS011;14000;52.056;8.510;2023-06-14T12:21:04;8.17;;;2.00;;
26277;SDS011;14000;52.056;8.510;2023-06-14T12:23:44;9.30;;;2.07;;
26277;SDS011;14000;52.056;8.510;2023-06-14T12:26:14;6.77;;;1.80;;
26277;SDS011;14000;52.056;8.510;2023-06-14T12:28:41;8.77;;;1.80;;
26277;SDS011;14000;52.056;8.510;2023-06-14T12:31:11;6.37;;;2.20;;
26277;SDS011;14000;52.056;8.510;2023-06-14T12:33:37;7.53;;;2.10;;
26277;SDS011;14000;52.056;8.510;2023-06-14T12:36:04;6.90;;;1.87;;
26277;SDS011;14000;52.056;8.510;2023-06-14T12:38:31;7.10;;;2.00;;
26277;SDS011;14000;52.056;8.510;2023-06-14T12:40:57;6.67;;;1.80;;
26277;SDS011;14000;52.056;8.510;2023-06-14T12:43:22;8.43;;;1.80;;
26277;SDS011;14000;52.056;8.510;2023-06-14T12:45:48;6.03;;;1.90;;
26277;SDS011;14000;52.056;8.510;2023-06-14T12:48:14;8.47;;;1.80;;
26277;SDS011;14000;52.056;8.510;2023-06-14T12:50:40;7.63;;;1.80;;
26277;SDS011;14000;52.056;8.510;2023-06-14T12:53:06;7.80;;;1.90;;
26277;SDS011;14000;52.056;8.510;2023-06-14T12:55:32;6.13;;;1.90;;
26277;SDS011;14000;52.056;8.510;2023-06-14T12:57:58;5.83;;;1.70;;
26277;SDS011;14000;52.056;8.510;2023-06-14T13:00:23;7.67;;;1.80;;
26277;SDS011;14000;52.056;8.510;2023-06-14T13:02:51;8.40;;;1.60;;
26277;SDS011;14000;52.056;8.510;2023-06-14T13:05:17;5.53;;;1.60;;
26277;SDS011;14000;52.056;8.510;2023-06-14T13:07:42;8.67;;;1.80;;
26277;SDS011;14000;52.056;8.510;2023-06-14T13:10:09;7.47;;;1.77;;
26277;SDS011;14000;52.056;8.510;2023-06-14T13:12:35;5.87;;;1.60;;
26277;SDS011;14000;52.056;8.510;2023-06-14T13:15:01;6.00;;;1.90;;
26277;SDS011;14000;52.056;8.510;2023-06-14T13:17:26;8.20;;;1.70;;
26277;SDS011;14000;52.056;8.510;2023-06-14T13:19:52;6.47;;;1.60;;
26277;SDS011;14000;52.056;8.510;2023-06-14T13:22:18;7.20;;;1.57;;
26277;SDS011;14000;52.056;8.510;2023-06-14T13:24:43;5.40;;;1.50;;
26277;SDS011;14000;52.056;8.510;2023-06-14T13:27:09;6.30;;;1.80;;
26277;SDS011;14000;52.056;8.510;2023-06-14T13:29:35;7.87;;;2.23;;
26277;SDS011;14000;52.056;8.510;2023-06-14T13:32:02;7.50;;;1.90;;
26277;SDS011;14000;52.056;8.510;2023-06-14T13:34:28;5.83;;;1.70;;
26277;SDS011;14000;52.056;8.510;2023-06-14T13:36:53;9.23;;;1.70;;
26277;SDS011;14000;52.056;8.510;2023-06-14T13:39:19;6.17;;;1.80;;
26277;SDS011;14000;52.056;8.510;2023-06-14T13:41:45;5.53;;;1.70;;
26277;SDS011;14000;52.056;8.510;2023-06-14T13:44:10;6.80;;;2.00;;
26277;SDS011;14000;52.056;8.510;2023-06-14T13:46:40;6.57;;;1.93;;
26277;SDS011;14000;52.056;8.510;2023-06-14T13:49:07;8.20;;;1.83;;
26277;SDS011;14000;52.056;8.510;2023-06-14T13:51:33;5.47;;;1.60;;
26277;SDS011;14000;52.056;8.510;2023-06-14T13:54:00;5.87;;;1.90;;
26277;SDS011;14000;52.056;8.510;2023-06-14T13:56:26;7.17;;;1.80;;
26277;SDS011;14000;52.056;8.510;2023-06-14T13:58:52;8.63;;;2.10;;
26277;SDS011;14000;52.056;8.510;2023-06-14T14:01:17;8.87;;;2.00;;
26277;SDS011;14000;52.056;8.510;2023-06-14T14:03:45;7.23;;;2.00;;
26277;SDS011;14000;52.056;8.510;2023-06-14T14:06:11;7.10;;;2.10;;
26277;SDS011;14000;52.056;8.510;2023-06-14T14:08:37;8.50;;;1.80;;
26277;SDS011;14000;52.056;8.510;2023-06-14T14:11:02;7.73;;;1.90;;
26277;SDS011;14000;52.056;8.510;2023-06-14T14:13:30;6.87;;;2.10;;
26277;SDS011;14000;52.056;8.510;2023-06-14T14:15:55;7.17;;;2.10;;
26277;SDS011;14000;52.056;8.510;2023-06-14T14:18:21;7.20;;;2.00;;
26277;SDS011;14000;52.056;8.510;2023-06-14T14:20:47;8.40;;;2.13;;
26277;SDS011;14000;52.056;8.510;2023-06-14T14:23:13;8.50;;;2.17;;
26277;SDS011;14000;52.056;8.510;2023-06-14T14:25:39;7.27;;;2.17;;
26277;SDS011;14000;52.056;8.510;2023-06-14T14:28:04;7.37;;;2.40;;
26277;SDS011;14000;52.056;8.510;2023-06-14T14:30:30;11.77;;;2.37;;
26277;SDS011;14000;52.056;8.510;2023-06-14T14:32:55;8.70;;;2.40;;
26277;SDS011;14000;52.056;8.510;2023-06-14T14:35:21;9.47;;;2.37;;
26277;SDS011;14000;52.056;8.510;2023-06-14T14:37:48;8.63;;;2.20;;
26277;SDS011;14000;52.056;8.510;2023-06-14T14:40:14;8.50;;;2.50;;
26277;SDS011;14000;52.056;8.510;2023-06-14T14:42:39;7.93;;;2.30;;
26277;SDS011;14000;52.056;8.510;2023-06-14T14:45:05;9.77;;;2.43;;
26277;SDS011;14000;52.056;8.510;2023-06-14T14:47:31;9.50;;;2.30;;
26277;SDS011;14000;52.056;8.510;2023-06-14T14:49:57;11.40;;;2.43;;
26277;SDS011;14000;52.056;8.510;2023-06-14T14:52:22;9.03;;;2.27;;